createdAt,value
2023-04-15T00:02:38.001Z,6.47
2023-04-15T00:05:41.644Z,6.54
2023-04-15T00:08:44.227Z,6.57
2023-04-15T00:11:47.341Z,6.56
2023-04-15T00:14:50.176Z,6.61
2023-04-15T00:17:53.141Z,6.70
2023-04-15T00:20:55.791Z,6.72
2023-04-15T00:23:59.108Z,6.78
2023-04-15T00:27:01.800Z,6.81
2023-04-15T00:30:26.736Z,6.86
2023-04-15T00:33:29.538Z,6.93
2023-04-15T00:36:34.030Z,6.97
2023-04-15T00:39:37.455Z,7.01
2023-04-15T00:42:41.329Z,6.96
2023-04-15T00:45:44.004Z,6.96
2023-04-15T00:48:47.509Z,7.02
2023-04-15T00:51:50.505Z,7.03
2023-04-15T00:54:54.249Z,6.91
2023-04-15T00:57:58.490Z,6.91
2023-04-15T01:01:11.504Z,6.93
2023-04-15T01:04:16.586Z,7.00
2023-04-15T01:07:19.641Z,7.01
2023-04-15T01:10:22.606Z,7.06
2023-04-15T01:13:29.948Z,7.03
2023-04-15T01:16:32.522Z,7.04
2023-04-15T01:19:37.237Z,7.09
2023-04-15T01:22:40.757Z,7.15
2023-04-15T01:25:50.299Z,7.12
2023-04-15T01:29:02.808Z,7.24
2023-04-15T01:32:05.954Z,7.23
2023-04-15T01:35:08.999Z,7.39
2023-04-15T01:38:12.008Z,7.33
2023-04-15T01:41:14.773Z,7.24
2023-04-15T01:44:17.785Z,7.25
2023-04-15T01:47:20.718Z,7.33
2023-04-15T01:50:23.776Z,7.35
2023-04-15T01:53:26.354Z,7.37
2023-04-15T01:56:29.823Z,7.40
2023-04-15T01:59:32.437Z,7.39
2023-04-15T02:02:36.124Z,7.38
2023-04-15T02:05:39.152Z,7.32
2023-04-15T02:08:42.203Z,7.32
2023-04-15T02:11:45.769Z,7.30
2023-04-15T02:14:48.350Z,7.28
2023-04-15T02:17:52.783Z,7.19
2023-04-15T02:20:57.357Z,7.25
2023-04-15T02:24:00.651Z,7.23
2023-04-15T02:27:03.713Z,7.26
2023-04-15T02:30:07.462Z,7.27
2023-04-15T02:33:10.471Z,7.25
2023-04-15T02:36:13.418Z,7.28
2023-04-15T02:39:16.956Z,7.33
2023-04-15T02:42:21.698Z,7.36
2023-04-15T02:45:27.649Z,7.40
2023-04-15T02:48:30.979Z,7.48
2023-04-15T02:51:33.493Z,7.49
2023-04-15T02:54:36.400Z,7.54
2023-04-15T02:57:39.443Z,7.53
2023-04-15T03:00:42.696Z,7.53
2023-04-15T03:03:45.661Z,7.59
2023-04-15T03:06:48.515Z,7.57
2023-04-15T03:09:51.148Z,7.57
2023-04-15T03:12:54.121Z,7.74
2023-04-15T03:15:57.064Z,7.67
2023-04-15T03:19:01.884Z,7.62
2023-04-15T03:22:04.910Z,7.60
2023-04-15T03:25:08.546Z,7.62
2023-04-15T03:28:11.242Z,7.62
2023-04-15T03:31:14.324Z,7.61
2023-04-15T03:34:16.910Z,7.61
2023-04-15T03:37:19.886Z,7.64
2023-04-15T03:40:22.601Z,7.61
2023-04-15T03:43:25.727Z,7.65
2023-04-15T03:46:28.380Z,7.60
2023-04-15T03:49:31.245Z,7.62
2023-04-15T03:52:34.315Z,7.61
2023-04-15T03:55:37.104Z,7.64
2023-04-15T03:58:39.800Z,7.62
2023-04-15T04:01:43.115Z,7.63
2023-04-15T04:04:46.498Z,7.64
2023-04-15T04:07:49.106Z,7.62
2023-04-15T04:10:52.445Z,7.63
2023-04-15T04:13:55.679Z,7.60
2023-04-15T04:16:58.618Z,7.64
2023-04-15T04:20:01.438Z,7.62
2023-04-15T04:23:04.530Z,7.73
2023-04-15T04:26:07.235Z,7.71
2023-04-15T04:29:10.051Z,7.69
2023-04-15T04:32:12.631Z,7.73
2023-04-15T04:35:15.789Z,7.72
2023-04-15T04:38:18.243Z,7.76
2023-04-15T04:41:21.052Z,7.87
2023-04-15T04:44:23.742Z,7.80
2023-04-15T04:47:27.267Z,7.87
2023-04-15T04:50:31.098Z,7.82
2023-04-15T04:53:33.989Z,7.81
2023-04-15T04:56:38.877Z,7.88
2023-04-15T04:59:42.049Z,7.94
2023-04-15T05:02:45.563Z,8.04
2023-04-15T05:05:49.392Z,8.03
2023-04-15T05:08:52.145Z,8.08
2023-04-15T05:11:55.019Z,8.08
2023-04-15T05:14:57.596Z,8.09
2023-04-15T05:18:00.555Z,8.09
2023-04-15T05:21:03.155Z,8.10
2023-04-15T05:24:07.056Z,8.13
2023-04-15T05:27:11.637Z,8.21
2023-04-15T05:30:14.600Z,8.20
2023-04-15T05:33:17.609Z,8.21
2023-04-15T05:36:21.108Z,8.31
2023-04-15T05:39:24.340Z,8.36
2023-04-15T05:42:27.334Z,8.43
2023-04-15T05:45:29.836Z,8.67
2023-04-15T05:48:32.783Z,8.74
2023-04-15T05:51:36.105Z,8.85
2023-04-15T05:54:39.394Z,8.86
2023-04-15T05:57:42.036Z,8.81
2023-04-15T06:00:46.272Z,8.85
2023-04-15T06:03:49.412Z,8.90
2023-04-15T06:06:52.297Z,8.73
2023-04-15T06:09:55.183Z,8.75
2023-04-15T06:12:57.769Z,8.81
2023-04-15T06:16:00.594Z,8.76
2023-04-15T06:19:03.728Z,8.70
2023-04-15T06:22:07.332Z,8.81
2023-04-15T06:25:10.107Z,8.80
2023-04-15T06:28:13.171Z,8.95
2023-04-15T06:31:16.049Z,9.00
2023-04-15T06:34:18.845Z,9.05
2023-04-15T06:37:22.191Z,9.01
2023-04-15T06:40:25.102Z,9.14
2023-04-15T06:43:27.653Z,9.18
2023-04-15T06:46:30.425Z,9.36
2023-04-15T06:49:33.783Z,9.38
2023-04-15T06:52:36.638Z,9.60
2023-04-15T06:55:40.527Z,9.76
2023-04-15T06:58:43.762Z,9.75
2023-04-15T07:01:46.626Z,9.77
2023-04-15T07:04:49.534Z,9.88
2023-04-15T07:07:53.247Z,9.93
2023-04-15T07:10:56.083Z,10.00
2023-04-15T07:13:58.905Z,10.05
2023-04-15T07:17:02.308Z,10.25
2023-04-15T07:20:05.283Z,10.28
2023-04-15T07:23:08.080Z,10.54
2023-04-15T07:26:11.192Z,10.77
2023-04-15T07:29:14.725Z,10.78
2023-04-15T07:32:18.164Z,10.98
2023-04-15T07:35:21.631Z,11.00
2023-04-15T07:38:24.131Z,10.95
2023-04-15T07:41:27.647Z,11.00
2023-04-15T07:44:31.689Z,11.04
2023-04-15T07:47:34.742Z,11.05
2023-04-15T07:50:37.355Z,11.16
2023-04-15T07:53:40.307Z,11.21
2023-04-15T07:56:42.828Z,11.38
2023-04-15T07:59:45.758Z,11.65
2023-04-15T08:02:48.526Z,11.78
2023-04-15T08:05:51.561Z,11.93
2023-04-15T08:08:57.172Z,12.16
2023-04-15T08:12:00.201Z,12.16
2023-04-15T08:15:03.753Z,12.19
2023-04-15T08:18:06.684Z,12.24
2023-04-15T08:21:09.476Z,12.27
2023-04-15T08:24:13.002Z,12.24
2023-04-15T08:27:15.696Z,12.24
2023-04-15T08:30:19.384Z,12.36
2023-04-15T08:33:22.044Z,12.36
2023-04-15T08:36:25.086Z,12.40
2023-04-15T08:39:28.313Z,12.67
2023-04-15T08:42:37.589Z,12.99
2023-04-15T08:45:40.151Z,13.20
2023-04-15T08:48:43.323Z,13.32
2023-04-15T08:51:45.902Z,13.32
2023-04-15T08:54:48.778Z,13.27
2023-04-15T08:57:51.417Z,13.33
2023-04-15T09:00:55.258Z,13.29
2023-04-15T09:03:59.524Z,13.27
2023-04-15T09:07:02.664Z,13.26
2023-04-15T09:10:05.769Z,13.23
2023-04-15T09:13:09.385Z,13.16
2023-04-15T09:16:11.916Z,13.22
2023-04-15T09:19:22.967Z,13.28
2023-04-15T09:22:32.434Z,13.60
2023-04-15T09:25:35.796Z,13.85
2023-04-15T09:28:43.538Z,14.08
2023-04-15T09:31:48.980Z,14.25
2023-04-15T09:34:51.757Z,14.45
2023-04-15T09:38:05.951Z,14.68
2023-04-15T09:41:18.676Z,14.88
2023-04-15T09:44:25.375Z,14.89
2023-04-15T09:47:29.345Z,14.81
2023-04-15T09:50:41.271Z,14.62
2023-04-15T09:53:43.873Z,14.75
2023-04-15T09:56:47.087Z,14.69
2023-04-15T09:59:50.182Z,14.60
2023-04-15T10:02:53.398Z,14.49
2023-04-15T10:05:59.910Z,14.46
2023-04-15T10:09:03.331Z,14.49
2023-04-15T10:12:06.290Z,14.53
2023-04-15T10:15:14.939Z,14.53
2023-04-15T10:18:21.633Z,14.61
2023-04-15T10:21:24.726Z,14.66
2023-04-15T10:25:08.140Z,14.53
2023-04-15T10:28:11.242Z,14.44
2023-04-15T10:31:17.605Z,14.53
2023-04-15T10:34:20.683Z,14.44
2023-04-15T10:37:36.940Z,14.51
2023-04-15T10:40:39.934Z,14.52
2023-04-15T10:44:02.987Z,14.38
2023-04-15T10:47:14.155Z,14.28
2023-04-15T10:50:19.179Z,14.06
2023-04-15T10:53:28.670Z,14.05
2023-04-15T10:56:31.853Z,14.21
2023-04-15T10:59:59.760Z,14.14
2023-04-15T11:03:09.992Z,14.11
2023-04-15T11:06:12.836Z,14.10
2023-04-15T11:09:33.308Z,14.08
2023-04-15T11:12:36.440Z,14.05
2023-04-15T11:15:47.011Z,13.91
2023-04-15T11:18:56.129Z,13.97
2023-04-15T11:22:07.310Z,14.11
2023-04-15T11:25:09.954Z,13.67
2023-04-15T11:28:13.985Z,13.79
2023-04-15T11:31:18.598Z,13.53
2023-04-15T11:34:25.608Z,13.49
2023-04-15T11:37:30.005Z,13.59
2023-04-15T11:40:35.871Z,13.66
2023-04-15T11:43:38.424Z,13.85
2023-04-15T11:46:41.293Z,13.90
2023-04-15T11:49:44.048Z,14.07
2023-04-15T11:52:54.849Z,14.14
2023-04-15T11:55:57.408Z,14.10
2023-04-15T11:59:00.306Z,14.14
2023-04-15T12:02:13.006Z,14.20
2023-04-15T12:05:17.359Z,14.15
2023-04-15T12:08:20.152Z,14.15
2023-04-15T12:11:52.947Z,14.20
2023-04-15T12:14:57.208Z,14.20
2023-04-15T12:18:00.536Z,14.09
2023-04-15T12:21:12.856Z,14.11
2023-04-15T12:24:15.887Z,14.05
2023-04-15T12:27:18.593Z,13.94
2023-04-15T12:30:21.504Z,14.08
2023-04-15T12:33:24.064Z,14.17
2023-04-15T12:36:28.566Z,14.35
2023-04-15T12:39:32.921Z,14.30
2023-04-15T12:42:36.255Z,14.21
2023-04-15T12:45:38.844Z,14.16
2023-04-15T12:48:41.948Z,14.05
2023-04-15T12:51:44.765Z,13.98
2023-04-15T12:54:47.594Z,13.93
2023-04-15T12:57:50.211Z,13.89
2023-04-15T13:00:55.454Z,13.92
2023-04-15T13:03:58.491Z,13.88
2023-04-15T13:07:01.972Z,14.04
2023-04-15T13:10:04.874Z,14.05
2023-04-15T13:13:08.599Z,13.97
2023-04-15T13:16:11.591Z,13.94
2023-04-15T13:19:14.856Z,14.05
2023-04-15T13:22:17.624Z,14.00
2023-04-15T13:25:20.524Z,13.95
2023-04-15T13:28:23.086Z,14.04
2023-04-15T13:31:26.365Z,14.02
2023-04-15T13:34:29.402Z,13.94
2023-04-15T13:37:32.756Z,14.01
2023-04-15T13:40:35.533Z,13.88
2023-04-15T13:43:38.823Z,13.91
2023-04-15T13:46:44.609Z,14.09
2023-04-15T13:49:47.520Z,13.94
2023-04-15T13:52:50.468Z,13.97
2023-04-15T13:55:53.428Z,13.89
2023-04-15T13:58:58.959Z,13.82
2023-04-15T14:02:02.277Z,13.80
2023-04-15T14:05:05.905Z,13.90
2023-04-15T14:08:08.573Z,13.74
2023-04-15T14:11:11.631Z,13.78
2023-04-15T14:14:17.113Z,13.76
2023-04-15T14:17:20.235Z,13.68
2023-04-15T14:20:22.934Z,13.62
2023-04-15T14:23:26.084Z,13.56
2023-04-15T14:26:28.557Z,13.56
2023-04-15T14:29:31.481Z,13.60
2023-04-15T14:32:34.112Z,13.62
2023-04-15T14:35:37.907Z,13.58
2023-04-15T14:38:41.078Z,13.49
2023-04-15T14:41:43.918Z,13.47
2023-04-15T14:44:46.636Z,13.49
2023-04-15T14:47:49.649Z,13.45
2023-04-15T14:50:52.877Z,13.45
2023-04-15T14:53:55.808Z,13.50
2023-04-15T14:56:58.814Z,13.55
2023-04-15T15:00:01.812Z,13.50
2023-04-15T15:03:12.505Z,13.40
2023-04-15T15:06:15.792Z,13.42
2023-04-15T15:09:23.769Z,13.39
2023-04-15T15:12:26.919Z,13.38
2023-04-15T15:15:29.618Z,13.41
2023-04-15T15:18:32.706Z,13.32
2023-04-15T15:21:35.324Z,13.37
2023-04-15T15:24:43.154Z,13.42
2023-04-15T15:27:45.830Z,13.38
2023-04-15T15:30:48.752Z,13.34
2023-04-15T15:33:51.808Z,13.33
2023-04-15T15:36:55.929Z,13.27
2023-04-15T15:39:58.777Z,13.19
2023-04-15T15:43:02.051Z,13.15
2023-04-15T15:46:04.826Z,13.08
2023-04-15T15:49:07.938Z,12.96
2023-04-15T15:52:11.325Z,13.00
2023-04-15T15:55:14.380Z,12.90
2023-04-15T15:58:17.554Z,13.10
2023-04-15T16:01:20.833Z,12.96
2023-04-15T16:04:23.903Z,12.92
2023-04-15T16:07:26.674Z,12.86
2023-04-15T16:10:29.557Z,12.75
2023-04-15T16:13:32.165Z,12.66
2023-04-15T16:16:35.350Z,12.67
2023-04-15T16:19:38.093Z,12.62
2023-04-15T16:22:40.935Z,12.65
2023-04-15T16:25:44.568Z,12.66
2023-04-15T16:28:47.634Z,12.61
2023-04-15T16:31:50.528Z,12.48
2023-04-15T16:34:53.818Z,12.47
2023-04-15T16:37:56.502Z,12.49
2023-04-15T16:41:00.840Z,12.42
2023-04-15T16:44:04.080Z,12.49
2023-04-15T16:47:09.046Z,12.38
2023-04-15T16:50:11.946Z,12.42
2023-04-15T16:53:15.721Z,12.29
2023-04-15T16:56:18.360Z,12.36
2023-04-15T16:59:22.025Z,12.41
2023-04-15T17:02:25.168Z,12.29
2023-04-15T17:05:28.474Z,12.24
2023-04-15T17:08:31.126Z,12.12
2023-04-15T17:11:35.356Z,12.08
2023-04-15T17:14:38.993Z,12.00
2023-04-15T17:17:47.155Z,12.03
2023-04-15T17:20:52.676Z,11.96
2023-04-15T17:23:56.974Z,11.90
2023-04-15T17:27:00.676Z,11.84
2023-04-15T17:30:08.684Z,11.83
2023-04-15T17:33:55.309Z,11.80
2023-04-15T17:36:35.169Z,11.78
2023-04-15T17:39:38.235Z,11.75
2023-04-15T17:42:44.144Z,11.77
2023-04-15T17:45:47.651Z,11.60
2023-04-15T17:48:51.118Z,11.51
2023-04-15T17:51:55.609Z,11.42
2023-04-15T17:54:59.014Z,11.34
2023-04-15T17:58:03.664Z,11.24
2023-04-15T18:01:14.774Z,11.20
2023-04-15T18:04:18.319Z,11.12
2023-04-15T18:07:21.320Z,11.04
2023-04-15T18:10:31.099Z,10.96
2023-04-15T18:13:34.063Z,10.86
2023-04-15T18:16:37.218Z,10.77
2023-04-15T18:19:40.832Z,10.63
2023-04-15T18:22:44.692Z,10.55
2023-04-15T18:25:47.699Z,10.54
2023-04-15T18:28:51.194Z,10.47
2023-04-15T18:31:55.062Z,10.46
2023-04-15T18:34:59.731Z,10.37
2023-04-15T18:38:02.840Z,10.32
2023-04-15T18:41:08.273Z,10.30
2023-04-15T18:44:12.756Z,10.21
2023-04-15T18:47:16.259Z,10.14
2023-04-15T18:50:19.410Z,10.10
2023-04-15T18:53:22.748Z,10.12
2023-04-15T18:56:26.145Z,10.10
2023-04-15T18:59:30.704Z,10.06
2023-04-15T19:02:34.306Z,10.06
2023-04-15T19:05:37.733Z,9.96
2023-04-15T19:08:42.600Z,9.92
2023-04-15T19:11:45.990Z,9.91
2023-04-15T19:14:49.063Z,9.86
2023-04-15T19:17:52.350Z,9.88
2023-04-15T19:20:56.061Z,9.82
2023-04-15T19:24:00.944Z,9.75
2023-04-15T19:27:04.155Z,9.74
2023-04-15T19:30:08.618Z,9.67
2023-04-15T19:33:12.532Z,9.64
2023-04-15T19:36:18.246Z,9.58
2023-04-15T19:39:21.140Z,9.46
2023-04-15T19:42:24.395Z,9.41
2023-04-15T19:45:27.339Z,9.38
2023-04-15T19:48:32.060Z,9.40
2023-04-15T19:51:36.327Z,9.35
2023-04-15T19:54:39.285Z,9.33
2023-04-15T19:57:42.264Z,9.33
2023-04-15T20:00:45.474Z,9.33
2023-04-15T20:03:49.354Z,9.27
2023-04-15T20:06:52.314Z,9.24
2023-04-15T20:09:56.061Z,9.22
2023-04-15T20:12:58.993Z,9.21
2023-04-15T20:16:02.318Z,9.15
2023-04-15T20:19:09.320Z,9.18
2023-04-15T20:22:12.375Z,9.12
2023-04-15T20:25:16.341Z,9.13
2023-04-15T20:28:19.460Z,9.18
2023-04-15T20:31:22.595Z,9.22
2023-04-15T20:34:25.735Z,9.25
2023-04-15T20:37:30.053Z,9.38
2023-04-15T20:40:36.411Z,9.28
2023-04-15T20:43:39.114Z,9.07
2023-04-15T20:46:41.932Z,9.03
2023-04-15T20:49:44.916Z,9.02
2023-04-15T20:52:47.867Z,9.00
2023-04-15T20:55:50.929Z,9.03
2023-04-15T20:58:54.173Z,9.04
2023-04-15T21:01:57.264Z,9.03
2023-04-15T21:05:00.493Z,9.05
2023-04-15T21:08:04.448Z,9.06
2023-04-15T21:11:07.280Z,9.06
2023-04-15T21:14:09.942Z,9.07
2023-04-15T21:17:12.919Z,9.09
2023-04-15T21:20:15.696Z,9.04
2023-04-15T21:23:18.581Z,9.07
2023-04-15T21:26:21.190Z,9.05
2023-04-15T21:29:24.338Z,9.03
2023-04-15T21:32:26.920Z,9.01
2023-04-15T21:35:30.551Z,8.95
2023-04-15T21:38:33.602Z,8.94
2023-04-15T21:41:39.379Z,8.89
2023-04-15T21:44:41.935Z,8.88
2023-04-15T21:47:56.872Z,8.80
2023-04-15T21:51:08.514Z,8.77
2023-04-15T21:54:11.861Z,8.72
2023-04-15T21:57:14.386Z,8.72
2023-04-15T22:00:17.537Z,8.64
2023-04-15T22:03:20.949Z,8.58
2023-04-15T22:06:23.728Z,8.54
2023-04-15T22:09:26.642Z,8.57
2023-04-15T22:12:29.095Z,8.55
2023-04-15T22:15:31.901Z,8.54
2023-04-15T22:18:34.450Z,8.46
2023-04-15T22:21:37.393Z,8.45
2023-04-15T22:24:41.087Z,8.40
2023-04-15T22:27:43.994Z,8.39
2023-04-15T22:30:46.649Z,8.49
2023-04-15T22:33:49.713Z,8.35
2023-04-15T22:36:52.653Z,8.37
2023-04-15T22:39:55.565Z,8.33
2023-04-15T22:42:58.136Z,8.29
2023-04-15T22:46:01.224Z,8.29
2023-04-15T22:49:07.948Z,8.36
2023-04-15T22:52:17.146Z,8.36
2023-04-15T22:55:26.234Z,8.37
2023-04-15T22:58:32.054Z,8.44
2023-04-15T23:01:35.016Z,8.46
2023-04-15T23:04:38.162Z,8.43
2023-04-15T23:07:40.771Z,8.36
2023-04-15T23:10:44.651Z,8.43
2023-04-15T23:13:47.585Z,8.38
2023-04-15T23:16:51.584Z,8.38
2023-04-15T23:19:54.181Z,8.37
2023-04-15T23:22:57.020Z,8.36
2023-04-15T23:26:01.374Z,8.42
2023-04-15T23:29:04.424Z,8.48
2023-04-15T23:32:06.923Z,8.40
2023-04-15T23:35:09.972Z,8.39
2023-04-15T23:38:12.534Z,8.40
2023-04-15T23:41:15.704Z,8.50
2023-04-15T23:44:20.339Z,8.49
2023-04-15T23:47:23.503Z,8.37
2023-04-15T23:50:27.919Z,8.35
2023-04-15T23:53:31.725Z,8.36
2023-04-15T23:56:34.276Z,8.35
2023-04-15T23:59:37.398Z,8.30
